• Join FlightAware (Why Join?)
  • Login
  • US Flag 
09:42AM EDT


 

Airport Tracker/Info


-or-


 

Live Flight TrackerFlight Track Log ✈ VLC140 ✈ 28-Mar-2014 ✈ CYYC - KPSP

Flight Track Log - Related Links

Times and Time Zones

All times are in EDT time to prevent confusion due to time zone crossing. See the VLC140 flight status page for this flight to view local times or setup timezone preferences in your user account.

Time Position Orientation Groundspeed Altitude Reporting Facility
EDT Latitude Longitude Course Direction KTS MPH feet Rate Location/Type
11:28AM 51.0667 -114.0500 187° South 190 219 5,500  Level Edmonton Center
11:29AM 51.0000 -114.0500 180° South 250 288 9,100 3,600 Climbing Edmonton Center
11:30AM 50.9167 -114.0500 180° South 290 334 12,800 3,660 Climbing Edmonton Center
11:31AM 50.8333 -114.0667 187° South 300 345 16,500 3,600 Climbing Edmonton Center
11:32AM 50.7500 -114.0667 180° South 310 357 20,000 3,540 Climbing Edmonton Center
11:33AM 50.2587 -114.1828 185° South  Level Estimated
11:33AM 50.6500 -114.0833 186° South 320 368 23,600  Level Edmonton Center
11:34AM 51.0070 -114.0409 187° South  Level Estimated
11:34AM 50.5500 -114.0833 180° South 340 391 26,100  Level Edmonton Center
11:35AM 50.4500 -114.0833 180° South 360 414 28,300 2,100 Climbing Edmonton Center
11:36AM 50.3500 -114.1000 186° South 380 437 30,300 1,980 Climbing Edmonton Center
11:37AM 50.2500 -114.1000 180° South 380 437 32,300 1,920 Climbing Edmonton Center
11:38AM 50.1500 -114.1000 180° South 380 437 34,200 1,620 Climbing Edmonton Center
11:39AM 50.0500 -114.1333 192° South 380 437 35,600 1,200 Climbing Edmonton Center
11:40AM 49.9167 -114.1333 180° South 380 437 36,700 1,020 Climbing Edmonton Center
11:41AM 49.8167 -114.1500 186° South 380 437 37,700 900 Climbing Edmonton Center
11:42AM 49.7167 -114.1500 180° South 380 437 38,600 780 Climbing Edmonton Center
11:43AM 49.6000 -114.1500 180° South 380 437 39,300 600 Climbing Edmonton Center
11:44AM 49.4833 -114.1333 175° South 400 460 39,800 420 Climbing Edmonton Center
11:45AM 49.3833 -114.1167 174° South 410 472 40,200 480 Climbing Edmonton Center
11:46AM 49.2667 -114.0833 169° South 420 483 40,800 360 Climbing Edmonton Center
11:47AM 49.1500 -114.0667 175° South 420 483 41,000 60 Climbing Edmonton Center
11:48AM 49.0333 -114.0333 169° South 430 495 41,000  Level Edmonton Center
11:49AM 48.9000 -114.0167 175° South 440 506 41,000  Level Edmonton Center
11:50AM 48.7833 -113.9667 164° South 440 506 41,000  Level Edmonton Center
11:51AM 48.6500 -113.9333 171° South 450 518 41,000  Level Edmonton Center
11:52AM 48.5333 -113.9167 175° South 460 529 41,000  Level Edmonton Center
11:53AM 48.4000 -113.8833 171° South 450 518 41,000  Level Edmonton Center
11:54AM 48.2833 -113.8667 175° South 450 518 41,000  Level Edmonton Center
11:55AM 48.1667 -113.8667 180° South 440 506 41,000  Level Edmonton Center
11:56AM 48.0500 -113.8167 164° South 450 518 41,000  Level Edmonton Center
11:57AM 47.9167 -113.8000 175° South 440 506 41,000  Level Edmonton Center
11:58AM 47.9017 -113.7694 126° Southeast 448 516 41,000  Level Salt Lake Center
11:59AM 47.7789 -113.7433 172° South 447 514 41,000  Level Salt Lake Center
12:00PM 47.6550 -113.7175 172° South 447 514 41,000  Level Salt Lake Center
12:01PM 47.5306 -113.6919 172° South 448 516 41,000  Level Salt Lake Center
12:02PM 47.4072 -113.6658 172° South 448 516 41,000  Level Salt Lake Center
12:03PM 47.2597 -113.6369 172° South 447 514 41,000  Level Salt Lake Center
12:04PM 47.1356 -113.6128 172° South 447 514 41,000  Level Salt Lake Center
12:05PM 47.0114 -113.5881 172° South 452 520 41,000  Level Salt Lake Center
12:06PM 46.8872 -113.5622 172° South 450 518 41,000  Level Salt Lake Center
12:07PM 46.7619 -113.5378 172° South 454 522 41,000  Level Salt Lake Center
12:08PM 46.6369 -113.5108 172° South 454 522 41,000  Level Salt Lake Center
12:09PM 46.4864 -113.4794 172° South 454 522 41,000  Level Salt Lake Center
12:10PM 46.3628 -113.4556 172° South 453 521 41,000  Level Salt Lake Center
12:11PM 46.2375 -113.4317 172° South 453 521 41,000  Level Salt Lake Center
12:12PM 46.1000 -113.4058 173° South 455 524 41,000  Level Salt Lake Center
12:13PM 45.9697 -113.3814 173° South 462 532 41,000  Level Salt Lake Center
12:14PM 45.8444 -113.3550 172° South 456 525 41,000  Level Salt Lake Center
12:15PM 45.7069 -113.3286 172° South 455 524 41,000  Level Salt Lake Center
12:16PM 45.5783 -113.3042 172° South 455 524 41,000  Level Salt Lake Center
12:17PM 45.4500 -113.2781 172° South 458 527 41,000  Level Salt Lake Center
12:18PM 45.3192 -113.2536 173° South 456 525 41,000  Level Salt Lake Center
12:20PM 45.1981 -113.2308 172° South 457 526 41,000  Level Salt Lake Center
12:21PM 45.0575 -113.2042 172° South 458 527 41,000  Level Salt Lake Center
12:22PM 44.9381 -113.1817 172° South 456 525 41,000  Level Salt Lake Center
12:23PM 44.7958 -113.1542 172° South 458 527 41,000  Level Salt Lake Center
12:24PM 44.6747 -113.1319 173° South 458 527 41,000  Level Salt Lake Center
12:25PM 44.5342 -113.1053 172° South 458 527 41,000  Level Salt Lake Center
12:26PM 44.4122 -113.0828 172° South 459 528 41,000  Level Salt Lake Center
12:27PM 44.2694 -113.0567 173° South 462 532 41,000  Level Salt Lake Center
12:28PM 44.1494 -113.0336 172° South 461 531 41,000  Level Salt Lake Center
12:29PM 44.0053 -113.0094 173° South 462 532 41,000  Level Salt Lake Center
12:30PM 43.8817 -112.9858 172° South 467 537 41,000  Level Salt Lake Center
12:31PM 43.7383 -112.9594 172° South 466 536 41,000  Level Salt Lake Center
12:32PM 43.6172 -112.9375 173° South 465 535 41,000  Level Salt Lake Center
12:33PM 43.4964 -112.9164 173° South 462 532 41,000  Level Salt Lake Center
12:34PM 43.3536 -112.8900 172° South 463 533 41,000  Level Salt Lake Center
12:35PM 43.2322 -112.8681 172° South 462 532 41,000  Level Salt Lake Center
12:36PM 43.0919 -112.8453 173° South 460 529 41,000  Level Salt Lake Center
12:37PM 42.9703 -112.8236 173° South 460 529 41,000  Level Salt Lake Center
12:38PM 42.8294 -112.7992 173° South 459 528 41,000  Level Salt Lake Center
12:39PM 42.7100 -112.7778 173° South 456 525 41,000  Level Salt Lake Center
12:40PM 42.5789 -112.7553 173° South 457 526 41,000  Level Salt Lake Center
12:41PM 42.4536 -112.7325 172° South 458 527 41,000  Level Salt Lake Center
12:42PM 42.3278 -112.7119 173° South 457 526 41,000  Level Salt Lake Center
12:43PM 42.1775 -112.6858 173° South 456 525 41,000  Level Salt Lake Center
12:44PM 42.0533 -112.6647 173° South 454 522 41,000  Level Salt Lake Center
12:45PM 41.9281 -112.6439 173° South 453 521 41,000  Level Salt Lake Center
12:46PM 41.8031 -112.6228 173° South 453 521 41,000  Level Salt Lake Center
12:47PM 41.6775 -112.6028 173° South 454 522 41,000  Level Salt Lake Center
12:48PM 41.5525 -112.5806 172° South 454 522 41,000  Level Salt Lake Center
12:49PM 41.4019 -112.5547 173° South 456 525 41,000  Level Salt Lake Center
12:51PM 41.2775 -112.5350 173° South 454 522 41,000  Level Salt Lake Center
12:52PM 41.1542 -112.5367 181° South 448 516 41,000  Level Salt Lake Center
12:53PM 41.0322 -112.5417 182° South 445 512 41,000  Level Salt Lake Center
12:54PM 40.9092 -112.5467 182° South 445 512 41,000  Level Salt Lake Center
12:55PM 40.7608 -112.5511 181° South 446 513 41,000  Level Salt Lake Center
12:56PM 40.6369 -112.5575 182° South 447 514 41,000  Level Salt Lake Center
12:57PM 40.5136 -112.5625 182° South 447 514 41,000  Level Salt Lake Center
12:58PM 40.3897 -112.5667 181° South 447 514 41,000  Level Salt Lake Center
12:59PM 40.2667 -112.5731 182° South 445 512 41,000  Level Salt Lake Center
01:00PM 40.1422 -112.5783 182° South 446 513 41,000  Level Salt Lake Center
01:01PM 39.9931 -112.5842 182° South 447 514 41,000  Level Salt Lake Center
01:02PM 39.8772 -112.6231 194° South 433 498 41,000  Level Salt Lake Center
01:03PM 39.7592 -112.6683 196° South 430 495 41,000  Level Salt Lake Center
01:04PM 39.6444 -112.7139 197° South 431 496 41,000  Level Salt Lake Center
01:05PM 39.5311 -112.7594 197° South 428 493 41,000  Level Salt Lake Center
01:06PM 39.4175 -112.8003 196° South 423 487 41,000  Level Salt Lake Center
01:07PM 39.2808 -112.8544 197° South 426 490 41,000  Level Salt Lake Center
01:08PM 39.1667 -112.9011 198° South 428 493 41,000  Level Salt Lake Center
01:09PM 39.0531 -112.9444 197° South 427 491 41,000  Level Salt Lake Center
01:10PM 38.9397 -112.9883 197° South 427 491 41,000  Level Salt Lake Center
01:11PM 38.8258 -113.0322 197° South 427 491 41,000  Level Salt Lake Center
01:12PM 38.7119 -113.0781 197° South 427 491 41,000  Level Salt Lake Center
01:13PM 38.5969 -113.1203 196° South 428 493 41,000  Level Salt Lake Center
01:14PM 38.4578 -113.1750 197° South 433 498 41,000  Level Salt Lake Center
01:15PM 38.3428 -113.2183 196° South 433 498 41,000 -60 Level Salt Lake Center
01:16PM 38.2272 -113.2628 197° South 433 498 40,900 -300 Descending Salt Lake Center
01:17PM 38.1106 -113.3072 197° South 436 502 40,400 -480 Descending Salt Lake Center
01:18PM 37.9953 -113.3506 197° South 436 502 40,000 -240 Descending Salt Lake Center
01:19PM 37.8828 -113.3978 198° South 435 501 40,000  Level Salt Lake Center
01:20PM 37.7594 -113.4806 208° Southwest 424 488 40,000  Level Salt Lake Center
01:21PM 37.6561 -113.5489 208° Southwest 422 486 40,000  Level Salt Lake Center
01:22PM 37.5744 -113.6047 208° Southwest 423 487 40,000  Level Los Angeles Center
01:23PM 37.4700 -113.6728 207° Southwest 424 488 40,000  Level Los Angeles Center
01:24PM 37.3431 -113.7511 206° Southwest 426 490 40,000  Level Los Angeles Center
01:25PM 37.2403 -113.8164 207° Southwest 418 481 40,000  Level Los Angeles Center
01:26PM 37.1364 -113.8792 206° Southwest 418 481 40,000  Level Los Angeles Center
01:27PM 37.0350 -113.9406 206° Southwest 418 481 40,000  Level Los Angeles Center
01:29PM 36.9308 -114.0050 206° Southwest 417 480 40,000  Level Los Angeles Center
01:30PM 36.8042 -114.0800 205° Southwest 418 481 40,000  Level Los Angeles Center
01:31PM 36.6983 -114.1442 206° Southwest 418 481 40,000  Level Los Angeles Center
01:32PM 36.5936 -114.2075 206° Southwest 418 481 40,000  Level Los Angeles Center
01:33PM 36.4881 -114.2694 205° Southwest 418 481 40,000  Level Los Angeles Center
01:34PM 36.3833 -114.3336 206° Southwest 418 481 40,000 -120 Level Los Angeles Center
01:35PM 36.2775 -114.3967 206° Southwest 418 481 39,800 -720 Descending Los Angeles Center
01:36PM 36.1531 -114.4700 205° Southwest 415 478 38,600 -1,080 Descending Los Angeles Center
01:37PM 36.0531 -114.5294 206° Southwest 401 461 37,600 -1,020 Descending Los Angeles Center
01:38PM 35.9536 -114.5889 206° Southwest 395 455 36,600 -1,020 Descending Los Angeles Center
01:39PM 35.8522 -114.6492 206° Southwest 400 460 35,600 -1,020 Descending Los Angeles Center
01:40PM 35.7489 -114.7092 205° Southwest 403 464 34,500 -1,020 Descending Los Angeles Center
01:41PM 35.6458 -114.7694 205° Southwest 406 467 33,500 -960 Descending Los Angeles Center
01:42PM 35.5403 -114.8317 206° Southwest 415 478 32,500 -780 Descending Los Angeles Center
01:43PM 35.4128 -114.9056 205° Southwest 418 481 32,000 -300 Descending Los Angeles Center
01:44PM 35.3078 -114.9678 206° Southwest 418 481 32,000  Level Los Angeles Center
01:45PM 35.2000 -115.0297 205° Southwest 422 486 32,000 -300 Level Los Angeles Center
01:46PM 35.0936 -115.0911 205° Southwest 422 486 31,500 -780 Descending Los Angeles Center
01:47PM 34.9878 -115.1514 205° Southwest 422 486 30,500 -1,020 Descending Los Angeles Center
01:48PM 34.8825 -115.2111 205° Southwest 420 483 29,500 -1,080 Descending Los Angeles Center
01:49PM 34.7539 -115.2853 205° Southwest 421 484 28,300 -1,080 Descending Los Angeles Center
01:50PM 34.6475 -115.3453 205° Southwest 423 487 27,300 -960 Descending Los Angeles Center
01:51PM 34.5394 -115.4053 205° Southwest 425 489 26,300 -1,020 Descending Los Angeles Center
01:52PM 34.4211 -115.4367 192° South 432 497 25,300 -1,500 Descending Los Angeles Center
01:53PM 34.3072 -115.4692 193° South 426 490 23,300 -1,980 Descending Los Angeles Center
01:54PM 34.1983 -115.5017 194° South 407 468 21,300 -2,220 Descending Los Angeles Center
01:55PM 34.0717 -115.5389 194° South 392 451 18,800 -2,220 Descending Los Angeles Center
01:56PM 33.9686 -115.5722 195° South 386 444 16,800 -1,860 Descending Los Angeles Center
01:58PM 33.8811 -115.6264 207° Southwest 370 426 15,000 -1,560 Descending Los Angeles Center
01:59PM 33.8775 -115.7342 268° West 339 390 13,600 -1,380 Descending Los Angeles Center
02:00PM 33.8914 -115.8411 279° West 334 384 12,200 -1,260 Descending Los Angeles Center
02:01PM 33.9014 -115.9450 277° West 320 368 11,000 -1,260 Descending Los Angeles Center
02:02PM 33.8539 -116.0439 240° Southwest 303 349 9,600 -1,440 Descending Los Angeles Center
02:03PM 33.8103 -116.1128 233° Southwest 278 320 8,100 -1,440 Descending Los Angeles Center
02:04PM 33.7706 -116.1822 235° Southwest 263 303 6,700 -1,020 Descending Los Angeles Center
02:05PM 33.7353 -116.2450 236° Southwest 259 298 6,000 -1,260 Descending Los Angeles Center
02:07PM 33.7500 -116.4000 277° West 207 238 2,700 -1,380 Descending Southern California TRACON
02:08PM 33.7667 -116.4500 292° West 194 223 1,600 -960 Descending Southern California TRACON
02:09PM 33.8000 -116.4833 320° Northwest 132 152 800 -840 Descending Southern California TRACON
02:11PM 33.8167 -116.5000 291° West  Level FlightAware Approximate
02:18PM 33.8297 -116.5067 337° Northwest  Level Estimated